createdAt,value
2016-11-11T00:00:10.014Z,4
2016-11-11T00:01:23.622Z,0
2016-11-11T00:02:37.251Z,4
2016-11-11T00:03:50.889Z,4
2016-11-11T00:05:04.509Z,4
2016-11-11T00:06:17.638Z,4
2016-11-11T00:07:31.323Z,4
2016-11-11T00:08:44.697Z,4
2016-11-11T00:09:58.429Z,4
2016-11-11T00:11:12.382Z,4
2016-11-11T00:12:26.088Z,4
2016-11-11T00:13:39.773Z,4
2016-11-11T00:14:53.388Z,4
2016-11-11T00:16:06.513Z,4
2016-11-11T00:17:19.357Z,4
2016-11-11T00:18:33.112Z,4
2016-11-11T00:19:46.944Z,4
2016-11-11T00:21:00.305Z,4
2016-11-11T00:22:13.421Z,4
2016-11-11T00:23:26.555Z,4
2016-11-11T00:24:40.135Z,4
2016-11-11T00:25:53.215Z,4
2016-11-11T00:27:06.830Z,4
2016-11-11T00:28:19.736Z,4
2016-11-11T00:29:32.293Z,4
2016-11-11T00:30:45.312Z,4
2016-11-11T00:31:58.397Z,4
2016-11-11T00:33:12.512Z,4
2016-11-11T00:34:26.155Z,4
2016-11-11T00:35:38.847Z,4
2016-11-11T00:36:51.915Z,4
2016-11-11T00:38:05.576Z,4
2016-11-11T00:39:19.200Z,4
2016-11-11T00:40:33.119Z,4
2016-11-11T00:41:46.433Z,0
2016-11-11T00:43:00.132Z,0
2016-11-11T00:44:13.664Z,4
2016-11-11T00:45:27.389Z,4
2016-11-11T00:46:40.478Z,4
2016-11-11T00:47:54.104Z,4
2016-11-11T00:49:07.778Z,4
2016-11-11T00:50:21.451Z,0
2016-11-11T00:51:35.074Z,0
2016-11-11T00:52:48.745Z,0
2016-11-11T00:54:02.348Z,0
2016-11-11T00:55:15.385Z,0
2016-11-11T00:56:28.483Z,0
2016-11-11T00:57:42.408Z,0
2016-11-11T00:58:55.991Z,0
2016-11-11T01:00:09.609Z,0
2016-11-11T01:01:22.704Z,0
2016-11-11T01:02:36.347Z,0
2016-11-11T01:03:49.916Z,0
2016-11-11T01:05:02.366Z,0
2016-11-11T01:06:15.376Z,0
2016-11-11T01:07:29.042Z,0
2016-11-11T01:08:42.380Z,0
2016-11-11T01:09:56.001Z,0
2016-11-11T01:11:09.584Z,0
2016-11-11T01:12:22.666Z,0
2016-11-11T01:13:36.013Z,0
2016-11-11T01:14:49.539Z,0
2016-11-11T01:16:03.212Z,0
2016-11-11T01:17:16.595Z,0
2016-11-11T01:18:30.253Z,0
2016-11-11T01:19:43.871Z,0
2016-11-11T01:20:57.441Z,0
2016-11-11T01:22:11.114Z,0
2016-11-11T01:23:24.769Z,0
2016-11-11T01:24:37.859Z,0
2016-11-11T01:25:51.082Z,0
2016-11-11T01:27:04.214Z,0
2016-11-11T01:28:17.310Z,0
2016-11-11T01:29:30.872Z,0
2016-11-11T01:30:43.917Z,0
2016-11-11T01:31:57.073Z,0
2016-11-11T01:33:10.665Z,0
2016-11-11T01:34:24.285Z,0
2016-11-11T01:35:37.972Z,0
2016-11-11T01:36:51.039Z,0
2016-11-11T01:38:04.154Z,0
2016-11-11T01:39:16.993Z,0
2016-11-11T01:40:29.723Z,0
2016-11-11T01:41:42.331Z,0
2016-11-11T01:42:55.934Z,0
2016-11-11T01:44:09.561Z,0
2016-11-11T01:45:23.187Z,0
2016-11-11T01:46:36.841Z,0
2016-11-11T01:47:49.879Z,0
2016-11-11T01:49:03.471Z,0
2016-11-11T01:50:16.489Z,0
2016-11-11T01:51:29.637Z,0
2016-11-11T01:52:43.611Z,0
2016-11-11T01:53:57.211Z,0
2016-11-11T01:55:10.843Z,0
2016-11-11T01:56:24.394Z,0
2016-11-11T01:57:36.883Z,0
2016-11-11T01:58:50.475Z,0
2016-11-11T02:00:04.115Z,0
2016-11-11T02:01:17.154Z,0
2016-11-11T02:02:30.752Z,0
2016-11-11T02:03:44.103Z,0
2016-11-11T02:04:57.229Z,0
2016-11-11T02:06:10.939Z,0
2016-11-11T02:07:24.036Z,0
2016-11-11T02:08:37.642Z,0
2016-11-11T02:09:50.148Z,0
2016-11-11T02:11:03.816Z,0
2016-11-11T02:12:17.364Z,0
2016-11-11T02:13:30.485Z,0
2016-11-11T02:14:43.048Z,0
2016-11-11T02:15:56.642Z,0
2016-11-11T02:17:09.646Z,0
2016-11-11T02:18:23.256Z,0
2016-11-11T02:19:36.542Z,0
2016-11-11T02:20:50.120Z,0
2016-11-11T02:22:03.796Z,0
2016-11-11T02:23:17.439Z,0
2016-11-11T02:24:30.577Z,0
2016-11-11T02:25:44.183Z,0
2016-11-11T02:26:57.370Z,0
2016-11-11T02:28:10.979Z,0
2016-11-11T02:29:24.550Z,0
2016-11-11T02:30:38.160Z,0
2016-11-11T02:31:51.216Z,0
2016-11-11T02:33:04.888Z,0
2016-11-11T02:34:18.529Z,0
2016-11-11T02:35:32.166Z,0
2016-11-11T02:36:45.827Z,0
2016-11-11T02:37:58.869Z,0
2016-11-11T02:39:12.444Z,0
2016-11-11T02:40:26.001Z,0
2016-11-11T02:41:39.765Z,0
2016-11-11T02:42:53.404Z,0
2016-11-11T02:44:07.024Z,0
2016-11-11T02:45:20.547Z,0
2016-11-11T02:46:34.254Z,0
2016-11-11T02:47:46.789Z,0
2016-11-11T02:49:00.401Z,0
2016-11-11T02:50:13.720Z,0
2016-11-11T02:51:27.361Z,0
2016-11-11T02:52:40.975Z,0
2016-11-11T02:53:54.669Z,0
2016-11-11T02:55:08.337Z,0
2016-11-11T02:56:21.448Z,0
2016-11-11T02:57:33.984Z,0
2016-11-11T02:58:47.406Z,0
2016-11-11T02:59:59.941Z,0
2016-11-11T03:01:13.544Z,0
2016-11-11T03:02:27.231Z,0
2016-11-11T03:03:40.853Z,0
2016-11-11T03:04:54.125Z,0
2016-11-11T03:06:07.779Z,0
2016-11-11T03:07:20.375Z,0
2016-11-11T03:08:33.438Z,0
2016-11-11T03:09:47.038Z,0
2016-11-11T03:11:00.129Z,0
2016-11-11T03:12:13.322Z,0
2016-11-11T03:13:26.976Z,0
2016-11-11T03:14:40.596Z,0
2016-11-11T03:15:53.909Z,0
2016-11-11T03:17:07.576Z,0
2016-11-11T03:18:20.704Z,0
2016-11-11T03:19:34.307Z,0
2016-11-11T03:20:47.955Z,0
2016-11-11T03:22:01.021Z,0
2016-11-11T03:23:14.621Z,0
2016-11-11T03:24:27.897Z,0
2016-11-11T03:25:40.943Z,0
2016-11-11T03:26:54.488Z,0
2016-11-11T03:28:08.048Z,0
2016-11-11T03:29:21.419Z,0
2016-11-11T03:30:35.100Z,0
2016-11-11T03:32:19.854Z,0
2016-11-11T03:33:33.119Z,0
2016-11-11T03:34:46.274Z,0
2016-11-11T03:35:59.925Z,0
2016-11-11T03:37:13.328Z,0
2016-11-11T03:38:27.007Z,0
2016-11-11T03:39:40.644Z,0
2016-11-11T03:40:54.268Z,0
2016-11-11T03:42:07.905Z,0
2016-11-11T03:43:20.393Z,0
2016-11-11T03:44:34.029Z,0
2016-11-11T03:45:47.141Z,0
2016-11-11T03:47:00.681Z,0
2016-11-11T03:48:13.775Z,0
2016-11-11T03:49:26.935Z,0
2016-11-11T03:50:40.523Z,0
2016-11-11T03:51:53.670Z,0
2016-11-11T03:53:07.576Z,0
2016-11-11T03:54:21.226Z,0
2016-11-11T03:55:34.972Z,0
2016-11-11T03:56:47.214Z,0
2016-11-11T03:58:00.303Z,0
2016-11-11T03:59:13.389Z,0
2016-11-11T04:00:26.488Z,0
2016-11-11T04:01:40.080Z,0
2016-11-11T04:02:53.618Z,0
2016-11-11T04:04:06.659Z,0
2016-11-11T04:05:50.862Z,0
2016-11-11T04:07:03.978Z,0
2016-11-11T04:08:17.507Z,0
2016-11-11T04:09:29.984Z,0
2016-11-11T04:10:43.681Z,0
2016-11-11T04:11:57.337Z,0
2016-11-11T04:13:10.447Z,0
2016-11-11T04:14:24.179Z,0
2016-11-11T04:15:37.239Z,0
2016-11-11T04:16:50.895Z,0
2016-11-11T04:18:04.509Z,0
2016-11-11T04:19:18.007Z,0
2016-11-11T04:20:31.620Z,0
2016-11-11T04:21:45.475Z,0
2016-11-11T04:22:58.999Z,0
2016-11-11T04:24:12.607Z,0
2016-11-11T04:25:25.652Z,0
2016-11-11T04:26:39.315Z,0
2016-11-11T04:27:52.354Z,0
2016-11-11T04:29:05.471Z,0
2016-11-11T04:30:19.089Z,0
2016-11-11T04:31:31.929Z,0
2016-11-11T04:32:45.530Z,0
2016-11-11T04:33:59.131Z,0
2016-11-11T04:35:12.180Z,0
2016-11-11T04:36:25.898Z,0
2016-11-11T04:37:39.313Z,0
2016-11-11T04:38:52.275Z,0
2016-11-11T04:40:05.431Z,0
2016-11-11T04:41:19.568Z,0
2016-11-11T04:42:33.145Z,0
2016-11-11T04:43:46.168Z,0
2016-11-11T04:44:59.307Z,0
2016-11-11T04:46:12.423Z,0
2016-11-11T04:47:26.072Z,0
2016-11-11T04:48:39.718Z,0
2016-11-11T04:49:52.587Z,0
2016-11-11T04:51:05.679Z,0
2016-11-11T04:52:19.235Z,0
2016-11-11T04:53:33.207Z,0
2016-11-11T04:54:45.764Z,0
2016-11-11T04:55:59.394Z,0
2016-11-11T04:57:43.042Z,0
2016-11-11T04:58:56.743Z,0
2016-11-11T05:00:10.315Z,0
2016-11-11T05:01:23.440Z,0
2016-11-11T05:02:36.989Z,0
2016-11-11T05:03:50.129Z,0
2016-11-11T05:05:02.645Z,0
2016-11-11T05:06:16.181Z,0
2016-11-11T05:07:28.396Z,0
2016-11-11T05:08:41.488Z,0
2016-11-11T05:09:55.106Z,0
2016-11-11T05:11:08.243Z,0
2016-11-11T05:12:21.950Z,0
2016-11-11T05:13:35.590Z,0
2016-11-11T05:14:48.320Z,0
2016-11-11T05:16:01.454Z,0
2016-11-11T05:17:14.253Z,0
2016-11-11T05:18:27.894Z,0
2016-11-11T05:19:41.515Z,0
2016-11-11T05:20:55.054Z,0
2016-11-11T05:22:39.379Z,0
2016-11-11T05:23:51.969Z,0
2016-11-11T05:25:05.058Z,0
2016-11-11T05:26:18.682Z,0
2016-11-11T05:27:31.763Z,0
2016-11-11T05:28:44.850Z,0
2016-11-11T05:29:58.388Z,0
2016-11-11T05:31:12.029Z,0
2016-11-11T05:32:24.855Z,0
2016-11-11T05:33:38.529Z,0
2016-11-11T05:34:51.622Z,0
2016-11-11T05:36:05.223Z,0
2016-11-11T05:37:18.564Z,0
2016-11-11T05:38:32.221Z,0
2016-11-11T05:39:45.671Z,0
2016-11-11T05:40:59.342Z,0
2016-11-11T05:42:43.625Z,0
2016-11-11T05:43:55.924Z,0
2016-11-11T05:45:09.576Z,0
2016-11-11T05:46:23.098Z,0
2016-11-11T05:47:36.349Z,0
2016-11-11T05:48:49.468Z,0
2016-11-11T05:50:02.507Z,0
2016-11-11T05:53:00.695Z,0
2016-11-11T05:54:13.773Z,0
2016-11-11T05:55:27.118Z,0
2016-11-11T05:56:40.222Z,0
2016-11-11T05:57:53.863Z,0
2016-11-11T05:59:07.421Z,0
2016-11-11T06:00:20.519Z,0
2016-11-11T06:01:34.154Z,0
2016-11-11T06:02:47.567Z,0
2016-11-11T06:04:00.674Z,0
2016-11-11T06:05:14.340Z,0
2016-11-11T06:06:27.565Z,0
2016-11-11T06:07:41.186Z,0
2016-11-11T06:08:54.219Z,0
2016-11-11T06:10:07.312Z,0
2016-11-11T06:11:20.923Z,0
2016-11-11T06:12:34.052Z,0
2016-11-11T06:13:47.630Z,0
2016-11-11T06:15:01.225Z,0
2016-11-11T06:16:14.862Z,0
2016-11-11T06:17:28.460Z,0
2016-11-11T06:18:42.032Z,0
2016-11-11T06:19:55.639Z,0
2016-11-11T06:21:08.180Z,0
2016-11-11T06:22:21.846Z,0
2016-11-11T06:23:35.524Z,0
2016-11-11T06:24:49.173Z,0
2016-11-11T06:26:02.842Z,0
2016-11-11T06:27:16.867Z,0
2016-11-11T06:28:30.540Z,0
2016-11-11T06:29:43.044Z,0
2016-11-11T06:30:56.713Z,0
2016-11-11T06:32:09.739Z,0
2016-11-11T06:33:23.276Z,0
2016-11-11T06:34:36.915Z,0
2016-11-11T06:35:50.522Z,0
2016-11-11T06:37:05.338Z,0
2016-11-11T06:38:18.941Z,0
2016-11-11T06:39:32.031Z,0
2016-11-11T06:40:45.207Z,0
2016-11-11T06:41:58.740Z,0
2016-11-11T06:43:12.535Z,0
2016-11-11T06:44:25.035Z,0
2016-11-11T06:45:38.638Z,0
2016-11-11T06:46:52.282Z,0
2016-11-11T06:48:05.319Z,0
2016-11-11T06:49:19.039Z,0
2016-11-11T06:50:32.175Z,0
2016-11-11T06:51:45.208Z,0
2016-11-11T06:52:58.264Z,0
2016-11-11T06:54:11.360Z,0
2016-11-11T06:55:24.481Z,0
2016-11-11T06:56:38.060Z,0
2016-11-11T06:57:51.688Z,0
2016-11-11T06:59:04.770Z,0
2016-11-11T07:00:18.421Z,0
2016-11-11T07:01:31.174Z,0
2016-11-11T07:02:44.673Z,0
2016-11-11T07:03:57.781Z,0
2016-11-11T07:05:10.899Z,0
2016-11-11T07:06:23.396Z,0
2016-11-11T07:07:36.373Z,0
2016-11-11T07:08:49.934Z,0
2016-11-11T07:10:03.583Z,0
2016-11-11T07:11:17.193Z,0
2016-11-11T07:12:30.809Z,0
2016-11-11T07:13:43.893Z,0
2016-11-11T07:14:57.009Z,0
2016-11-11T07:16:10.048Z,0
2016-11-11T07:17:23.715Z,0
2016-11-11T07:18:37.327Z,0
2016-11-11T07:19:50.896Z,0
2016-11-11T07:21:03.919Z,0
2016-11-11T07:22:16.993Z,0
2016-11-11T07:24:01.206Z,0
2016-11-11T07:25:14.826Z,0
2016-11-11T07:26:27.355Z,0
2016-11-11T07:27:40.913Z,0
2016-11-11T07:28:54.039Z,0
2016-11-11T07:30:07.121Z,0
2016-11-11T07:31:20.168Z,0
2016-11-11T07:32:33.308Z,0
2016-11-11T07:33:46.423Z,0
2016-11-11T07:34:59.784Z,0
2016-11-11T07:36:12.886Z,0
2016-11-11T07:37:26.023Z,0
2016-11-11T07:38:39.603Z,0
2016-11-11T07:39:53.234Z,0
2016-11-11T07:41:06.397Z,0
2016-11-11T07:42:20.089Z,0
2016-11-11T07:43:33.642Z,0
2016-11-11T07:44:47.232Z,0
2016-11-11T07:46:00.286Z,0
2016-11-11T07:47:13.935Z,0
2016-11-11T07:48:27.017Z,0
2016-11-11T07:49:40.617Z,0
2016-11-11T07:50:54.176Z,0
2016-11-11T07:52:07.522Z,0
2016-11-11T07:53:21.227Z,0
2016-11-11T07:54:34.779Z,0
2016-11-11T07:55:47.986Z,0
2016-11-11T07:57:01.104Z,0
2016-11-11T07:58:14.184Z,0
2016-11-11T07:59:27.799Z,0
2016-11-11T08:00:41.304Z,4
2016-11-11T08:01:54.961Z,0
2016-11-11T08:03:08.604Z,4
2016-11-11T08:04:22.246Z,4
2016-11-11T08:05:35.910Z,0
2016-11-11T08:06:48.956Z,4
2016-11-11T08:08:02.018Z,4
2016-11-11T08:09:15.047Z,8
2016-11-11T08:10:28.703Z,8
2016-11-11T08:11:42.615Z,8
2016-11-11T08:12:56.277Z,12
2016-11-11T08:14:09.444Z,20
2016-11-11T08:15:22.992Z,20
2016-11-11T08:16:36.637Z,24
2016-11-11T08:17:50.519Z,24
2016-11-11T08:19:04.154Z,28
2016-11-11T08:20:17.448Z,36
2016-11-11T08:21:31.036Z,40
2016-11-11T08:22:44.358Z,48
2016-11-11T08:23:57.974Z,56
2016-11-11T08:25:11.020Z,64
2016-11-11T08:26:24.660Z,72
2016-11-11T08:27:38.248Z,80
2016-11-11T08:28:51.880Z,88
2016-11-11T08:30:05.468Z,92
2016-11-11T08:31:18.074Z,100
2016-11-11T08:32:31.701Z,104
2016-11-11T08:33:45.418Z,112
2016-11-11T08:34:59.043Z,120
2016-11-11T08:36:12.662Z,128
2016-11-11T08:37:25.775Z,136
2016-11-11T08:38:38.877Z,148
2016-11-11T08:39:52.606Z,152
2016-11-11T08:41:06.390Z,156
2016-11-11T08:42:19.437Z,164
2016-11-11T08:43:32.506Z,164
2016-11-11T08:44:45.872Z,164
2016-11-11T08:45:59.510Z,168
2016-11-11T08:47:13.201Z,168
2016-11-11T08:48:26.407Z,164
2016-11-11T08:49:39.984Z,164
2016-11-11T08:50:53.644Z,164
2016-11-11T08:52:07.008Z,168
2016-11-11T08:53:20.576Z,176
2016-11-11T08:54:34.156Z,176
2016-11-11T08:55:47.819Z,176
2016-11-11T08:57:01.359Z,176
2016-11-11T08:58:14.512Z,172
2016-11-11T08:59:27.582Z,176
2016-11-11T09:00:41.219Z,180
2016-11-11T09:01:54.925Z,188
2016-11-11T09:03:08.501Z,196
2016-11-11T09:04:22.102Z,204
2016-11-11T09:05:35.652Z,208
2016-11-11T09:08:16.923Z,216
2016-11-11T09:09:30.031Z,224
2016-11-11T09:10:43.701Z,232
2016-11-11T09:11:57.298Z,236
2016-11-11T09:13:10.906Z,240
2016-11-11T09:14:24.266Z,244
2016-11-11T09:15:37.812Z,244
2016-11-11T09:16:51.486Z,244
2016-11-11T09:18:05.120Z,240
2016-11-11T09:19:18.880Z,240
2016-11-11T09:20:32.506Z,244
2016-11-11T09:21:46.179Z,256
2016-11-11T09:22:59.776Z,252
2016-11-11T09:24:12.873Z,252
2016-11-11T09:25:26.852Z,256
2016-11-11T09:26:39.691Z,256
2016-11-11T09:27:53.280Z,244
2016-11-11T09:29:06.840Z,244
2016-11-11T09:30:51.438Z,256
2016-11-11T09:32:05.135Z,248
2016-11-11T09:33:18.439Z,260
2016-11-11T09:34:31.974Z,276
2016-11-11T09:35:45.851Z,292
2016-11-11T09:36:59.416Z,320
2016-11-11T09:38:12.979Z,328
2016-11-11T09:39:57.720Z,340
2016-11-11T09:41:11.256Z,344
2016-11-11T09:42:24.864Z,356
2016-11-11T09:43:38.581Z,360
2016-11-11T09:44:52.192Z,368
2016-11-11T09:46:36.849Z,364
2016-11-11T09:47:50.464Z,412
2016-11-11T09:49:04.008Z,436
2016-11-11T09:50:17.645Z,472
2016-11-11T09:51:30.745Z,484
2016-11-11T09:52:44.334Z,480
2016-11-11T09:53:57.975Z,476
2016-11-11T09:55:11.693Z,472
2016-11-11T09:56:25.026Z,444
2016-11-11T09:57:38.609Z,440
2016-11-11T09:58:52.147Z,436
2016-11-11T10:00:05.857Z,408
2016-11-11T10:01:19.505Z,380
2016-11-11T10:02:33.312Z,352
2016-11-11T10:03:47.021Z,316
2016-11-11T10:05:00.225Z,312
2016-11-11T10:06:13.917Z,316
2016-11-11T10:07:27.480Z,348
2016-11-11T10:08:41.053Z,360
2016-11-11T10:09:54.722Z,352
2016-11-11T10:11:08.413Z,360
2016-11-11T10:12:22.034Z,372
2016-11-11T10:13:35.603Z,376
2016-11-11T10:14:49.273Z,376
2016-11-11T10:16:02.907Z,376
2016-11-11T10:17:17.013Z,380
2016-11-11T10:18:30.621Z,380
2016-11-11T10:19:44.266Z,380
2016-11-11T10:20:57.899Z,388
2016-11-11T10:22:11.562Z,392
2016-11-11T10:23:25.202Z,396
2016-11-11T10:24:38.749Z,400
2016-11-11T10:25:52.450Z,408
2016-11-11T10:27:06.502Z,416
2016-11-11T10:28:20.132Z,420
2016-11-11T10:29:33.418Z,428
2016-11-11T10:30:46.992Z,432
2016-11-11T10:32:00.548Z,436
2016-11-11T10:33:14.132Z,440
2016-11-11T10:34:27.682Z,448
2016-11-11T10:35:40.740Z,456
2016-11-11T10:36:53.748Z,464
2016-11-11T10:38:06.793Z,468
2016-11-11T10:39:19.553Z,472
2016-11-11T10:40:33.324Z,480
2016-11-11T10:41:47.027Z,476
2016-11-11T10:43:00.586Z,476
2016-11-11T10:44:13.962Z,476
2016-11-11T10:45:27.573Z,480
2016-11-11T10:46:41.186Z,488
2016-11-11T10:47:54.788Z,484
2016-11-11T10:49:07.828Z,488
2016-11-11T10:50:21.171Z,484
2016-11-11T10:51:34.834Z,492
2016-11-11T10:52:48.521Z,496
2016-11-11T10:54:02.148Z,492
2016-11-11T10:55:15.935Z,496
2016-11-11T10:56:29.520Z,496
2016-11-11T10:57:43.059Z,496
2016-11-11T10:58:56.668Z,496
2016-11-11T11:00:10.285Z,496
2016-11-11T11:01:23.871Z,500
2016-11-11T11:02:37.516Z,496
2016-11-11T11:03:51.158Z,492
2016-11-11T11:05:04.803Z,492
2016-11-11T11:06:18.324Z,492
2016-11-11T11:07:31.977Z,496
2016-11-11T11:08:45.893Z,500
2016-11-11T11:09:59.423Z,496
2016-11-11T11:11:13.100Z,500
2016-11-11T11:12:26.801Z,504
2016-11-11T11:13:40.276Z,508
2016-11-11T11:14:53.941Z,516
2016-11-11T11:16:07.511Z,520
2016-11-11T11:17:21.090Z,528
2016-11-11T11:18:34.436Z,536
2016-11-11T11:20:19.103Z,560
2016-11-11T11:21:32.783Z,588
2016-11-11T11:22:46.487Z,596
2016-11-11T11:24:00.075Z,624
2016-11-11T11:25:13.951Z,712
2016-11-11T11:26:27.886Z,760
2016-11-11T11:27:41.479Z,700
2016-11-11T11:28:55.097Z,720
2016-11-11T11:30:08.192Z,664
2016-11-11T11:31:21.855Z,632
2016-11-11T11:32:35.426Z,616
2016-11-11T11:33:48.996Z,600
2016-11-11T11:35:02.666Z,588
2016-11-11T11:36:16.268Z,580
2016-11-11T11:37:29.872Z,572
2016-11-11T11:38:43.494Z,568
2016-11-11T11:39:57.133Z,572
2016-11-11T11:41:10.320Z,568
2016-11-11T11:42:24.009Z,572
2016-11-11T11:43:37.588Z,576
2016-11-11T11:44:51.229Z,580
2016-11-11T11:46:04.800Z,600
2016-11-11T11:47:18.379Z,628
2016-11-11T11:48:31.465Z,652
2016-11-11T11:49:45.078Z,672
2016-11-11T11:50:58.650Z,676
2016-11-11T11:52:12.259Z,684
2016-11-11T11:53:25.810Z,688
2016-11-11T11:54:38.830Z,676
2016-11-11T11:55:52.439Z,664
2016-11-11T11:57:06.522Z,656
2016-11-11T11:58:20.176Z,644
2016-11-11T11:59:33.524Z,628
2016-11-11T12:00:47.111Z,620
2016-11-11T12:02:00.679Z,620
2016-11-11T12:03:14.315Z,620
2016-11-11T12:04:28.012Z,624
2016-11-11T12:05:41.092Z,624
2016-11-11T12:06:54.404Z,628
2016-11-11T12:08:08.026Z,628
2016-11-11T12:09:21.697Z,632
2016-11-11T12:10:35.294Z,640
2016-11-11T12:11:48.882Z,652
2016-11-11T12:13:02.541Z,672
2016-11-11T12:14:16.190Z,680
2016-11-11T12:15:29.762Z,700
2016-11-11T12:16:42.849Z,708
2016-11-11T12:17:56.478Z,720
2016-11-11T12:19:10.041Z,708
2016-11-11T12:20:23.764Z,716
2016-11-11T12:21:37.340Z,712
2016-11-11T12:22:50.981Z,720
2016-11-11T12:24:04.568Z,724
2016-11-11T12:25:18.159Z,732
2016-11-11T12:26:31.935Z,728
2016-11-11T12:28:16.995Z,732
2016-11-11T12:29:30.721Z,740
2016-11-11T12:30:44.341Z,744
2016-11-11T12:31:57.961Z,760
2016-11-11T12:33:11.610Z,772
2016-11-11T12:34:25.192Z,772
2016-11-11T12:35:38.902Z,796
2016-11-11T12:36:52.313Z,800
2016-11-11T12:38:05.924Z,812
2016-11-11T12:39:19.637Z,840
2016-11-11T12:40:33.407Z,864
2016-11-11T12:41:47.049Z,896
2016-11-11T12:43:00.708Z,916
2016-11-11T12:44:14.013Z,964
2016-11-11T12:45:27.859Z,1004
2016-11-11T12:46:41.469Z,1044
2016-11-11T12:47:55.205Z,1104
2016-11-11T12:49:08.953Z,1184
2016-11-11T12:50:22.541Z,1268
2016-11-11T12:51:35.879Z,1396
2016-11-11T12:52:49.618Z,1532
2016-11-11T12:54:03.453Z,1708
2016-11-11T12:55:17.093Z,1900
2016-11-11T12:56:30.210Z,2084
2016-11-11T12:57:43.889Z,2300
2016-11-11T12:58:57.479Z,2540
2016-11-11T13:00:11.097Z,2784
2016-11-11T13:01:24.657Z,3064
2016-11-11T13:02:38.178Z,3304
2016-11-11T13:03:51.830Z,3572
2016-11-11T13:05:05.360Z,3788
2016-11-11T13:06:19.019Z,4156
2016-11-11T13:07:32.677Z,4408
2016-11-11T13:08:46.277Z,1136
2016-11-11T13:10:00.016Z,4884
2016-11-11T13:11:13.419Z,4924
2016-11-11T13:12:27.079Z,4432
2016-11-11T13:13:40.627Z,4204
2016-11-11T13:14:54.330Z,4036
2016-11-11T13:16:07.992Z,3708
2016-11-11T13:17:21.566Z,3740
2016-11-11T13:18:35.201Z,2980
2016-11-11T13:19:48.829Z,5428
2016-11-11T13:21:02.398Z,5364
2016-11-11T13:22:15.947Z,5684
2016-11-11T13:23:29.624Z,5764
2016-11-11T13:24:42.960Z,5736
2016-11-11T13:25:56.637Z,5872
2016-11-11T13:27:10.311Z,6056
2016-11-11T13:28:23.999Z,6164
2016-11-11T13:29:36.758Z,6300
2016-11-11T13:30:50.368Z,6396
2016-11-11T13:32:03.979Z,6580
2016-11-11T13:33:17.651Z,6664
2016-11-11T13:34:31.336Z,6644
2016-11-11T13:35:44.956Z,4848
2016-11-11T13:36:58.714Z,2328
2016-11-11T13:38:12.857Z,7916
2016-11-11T13:39:26.458Z,4856
2016-11-11T13:40:40.088Z,7636
2016-11-11T13:41:53.715Z,3744
2016-11-11T13:43:07.391Z,2988
2016-11-11T13:44:21.024Z,7820
2016-11-11T13:45:34.622Z,2644
2016-11-11T13:46:48.282Z,7996
2016-11-11T13:48:01.873Z,1988
2016-11-11T13:49:16.035Z,2004
2016-11-11T13:50:29.632Z,7960
2016-11-11T13:51:43.213Z,1824
2016-11-11T13:52:56.796Z,2088
2016-11-11T13:54:10.760Z,3776
2016-11-11T13:55:24.407Z,5412
2016-11-11T13:56:37.978Z,7856
2016-11-11T13:57:51.503Z,8016
2016-11-11T13:59:05.153Z,8304
2016-11-11T14:00:18.821Z,8672
2016-11-11T14:01:31.828Z,8872
2016-11-11T14:02:45.369Z,8736
2016-11-11T14:03:58.982Z,8208
2016-11-11T14:05:12.802Z,1848
2016-11-11T14:06:25.864Z,8624
2016-11-11T14:07:39.738Z,2044
2016-11-11T14:08:53.379Z,2004
2016-11-11T14:10:06.962Z,8768
2016-11-11T14:11:20.538Z,8796
2016-11-11T14:12:34.138Z,2068
2016-11-11T14:13:47.788Z,7900
2016-11-11T14:15:01.321Z,1744
2016-11-11T14:16:14.359Z,1652
2016-11-11T14:17:27.989Z,8896
2016-11-11T14:18:41.684Z,9056
2016-11-11T14:19:54.788Z,9264
2016-11-11T14:21:08.421Z,9388
2016-11-11T14:22:22.035Z,9452
2016-11-11T14:23:35.588Z,9620
2016-11-11T14:24:49.443Z,2904
2016-11-11T14:26:03.138Z,9568
2016-11-11T14:27:17.120Z,9712
2016-11-11T14:28:30.823Z,9988
2016-11-11T14:29:44.424Z,9956
2016-11-11T14:30:58.032Z,10048
2016-11-11T14:32:11.672Z,10172
2016-11-11T14:33:25.380Z,10284
2016-11-11T14:34:39.019Z,10628
2016-11-11T14:35:51.903Z,10368
2016-11-11T14:37:05.537Z,1996
2016-11-11T14:38:19.273Z,1496
2016-11-11T14:39:32.808Z,1520
2016-11-11T14:40:46.007Z,1572
2016-11-11T14:41:59.606Z,1900
2016-11-11T14:43:13.163Z,11204
2016-11-11T14:44:26.766Z,10768
2016-11-11T14:45:40.374Z,1548
2016-11-11T14:46:53.943Z,8272
2016-11-11T14:48:08.079Z,10536
2016-11-11T14:49:21.799Z,10504
2016-11-11T14:50:35.407Z,10644
2016-11-11T14:53:33.866Z,11008
2016-11-11T14:54:47.230Z,11036
2016-11-11T14:56:00.953Z,11060
2016-11-11T14:57:14.648Z,11132
2016-11-11T14:58:28.325Z,11152
2016-11-11T14:59:41.875Z,11092
2016-11-11T15:00:55.015Z,11100
2016-11-11T15:02:08.645Z,11256
2016-11-11T15:03:22.360Z,10348
2016-11-11T15:04:35.443Z,10940
2016-11-11T15:05:49.000Z,10880
2016-11-11T15:07:02.611Z,11092
2016-11-11T15:08:16.190Z,11164
2016-11-11T15:09:29.810Z,11452
2016-11-11T15:10:43.412Z,4324
2016-11-11T15:11:57.039Z,2212
2016-11-11T15:13:10.419Z,6960
2016-11-11T15:14:23.792Z,5896
2016-11-11T15:16:08.531Z,10016
2016-11-11T15:17:22.161Z,7392
2016-11-11T15:18:35.808Z,11268
2016-11-11T15:19:49.421Z,9480
2016-11-11T15:21:03.028Z,11412
2016-11-11T15:22:16.617Z,11876
2016-11-11T15:23:30.307Z,1428
2016-11-11T15:24:43.752Z,1516
2016-11-11T15:25:57.358Z,12232
2016-11-11T15:27:10.991Z,11688
2016-11-11T15:28:24.719Z,11412
2016-11-11T15:29:38.358Z,12072
2016-11-11T15:30:52.046Z,11984
2016-11-11T15:32:36.818Z,1780
2016-11-11T15:33:50.386Z,2100
2016-11-11T15:35:03.538Z,4552
2016-11-11T15:36:16.067Z,3004
2016-11-11T15:37:29.617Z,11880
2016-11-11T15:38:43.206Z,11980
2016-11-11T15:39:56.303Z,1228
2016-11-11T15:41:09.974Z,1196
2016-11-11T15:42:23.641Z,1152
2016-11-11T15:43:37.180Z,1240
2016-11-11T15:44:50.788Z,1588
2016-11-11T15:46:04.336Z,2196
2016-11-11T15:47:18.113Z,2132
2016-11-11T15:48:31.255Z,12536
2016-11-11T15:49:44.808Z,12260
2016-11-11T15:50:58.468Z,12024
2016-11-11T15:52:12.187Z,11876
2016-11-11T15:53:25.854Z,12180
2016-11-11T15:54:39.748Z,12400
2016-11-11T15:55:53.303Z,12340
2016-11-11T15:57:06.685Z,11556
2016-11-11T15:58:20.042Z,12116
2016-11-11T15:59:33.049Z,12148
2016-11-11T16:00:46.706Z,12264
2016-11-11T16:02:00.253Z,12156
2016-11-11T16:03:13.975Z,12080
2016-11-11T16:04:27.289Z,2400
2016-11-11T16:05:40.960Z,3152
2016-11-11T16:06:54.618Z,2392
2016-11-11T16:08:08.168Z,1764
2016-11-11T16:09:21.699Z,1652
2016-11-11T16:10:35.369Z,2844
2016-11-11T16:11:48.437Z,1536
2016-11-11T16:13:01.744Z,7640
2016-11-11T16:14:15.497Z,10260
2016-11-11T16:15:29.117Z,1820
2016-11-11T16:16:42.866Z,1704
2016-11-11T16:17:56.555Z,12628
2016-11-11T16:19:10.098Z,12188
2016-11-11T16:20:23.696Z,12484
2016-11-11T16:21:37.117Z,12652
2016-11-11T16:22:50.796Z,2432
2016-11-11T16:24:04.479Z,1940
2016-11-11T16:25:17.553Z,11948
2016-11-11T16:26:31.605Z,11900
2016-11-11T16:27:45.322Z,12164
2016-11-11T16:28:58.345Z,11512
2016-11-11T16:30:11.679Z,12048
2016-11-11T16:31:25.366Z,12192
2016-11-11T16:32:38.956Z,11928
2016-11-11T16:33:52.594Z,9772
2016-11-11T16:35:06.672Z,8192
2016-11-11T16:36:19.966Z,8244
2016-11-11T16:37:33.573Z,10608
2016-11-11T16:38:47.213Z,10960
2016-11-11T16:40:00.826Z,11132
2016-11-11T16:41:14.483Z,9812
2016-11-11T16:42:28.111Z,12076
2016-11-11T16:43:41.743Z,12056
2016-11-11T16:44:55.124Z,12008
2016-11-11T16:46:08.762Z,11564
2016-11-11T16:47:22.341Z,11624
2016-11-11T16:48:36.050Z,12072
2016-11-11T16:49:49.743Z,9340
2016-11-11T16:51:02.719Z,11808
2016-11-11T16:52:16.339Z,12436
2016-11-11T16:53:29.953Z,2436
2016-11-11T16:54:43.568Z,2384
2016-11-11T16:55:57.287Z,11372
2016-11-11T16:57:10.898Z,10856
2016-11-11T16:58:24.520Z,11032
2016-11-11T16:59:37.990Z,11176
2016-11-11T17:00:51.286Z,7292
2016-11-11T17:02:04.085Z,7976
2016-11-11T17:03:17.468Z,1908
2016-11-11T17:04:31.090Z,1696
2016-11-11T17:05:44.760Z,10524
2016-11-11T17:06:58.467Z,10804
2016-11-11T17:08:12.048Z,10656
2016-11-11T17:09:25.606Z,10316
2016-11-11T17:10:39.291Z,10396
2016-11-11T17:11:52.867Z,10384
2016-11-11T17:13:05.958Z,10404
2016-11-11T17:14:19.506Z,10300
2016-11-11T17:15:32.653Z,10212
2016-11-11T17:16:46.307Z,10200
2016-11-11T17:17:59.400Z,10100
2016-11-11T17:19:12.481Z,10060
2016-11-11T17:20:26.169Z,1312
2016-11-11T17:21:39.893Z,10452
2016-11-11T17:22:53.484Z,9856
2016-11-11T17:24:07.103Z,9884